createdAt,value
2022-10-14T00:13:48.476Z,13.6
2022-10-14T00:28:57.587Z,13.6
2022-10-14T00:44:07.479Z,13.6
2022-10-14T00:59:17.960Z,13.6
2022-10-14T01:14:27.734Z,13.6
2022-10-14T01:29:37.147Z,13.6
2022-10-14T01:44:46.680Z,13.6
2022-10-14T01:59:55.717Z,13.5
2022-10-14T02:15:04.963Z,13.5
2022-10-14T02:30:14.282Z,13.5
2022-10-14T02:45:23.589Z,13.5
2022-10-14T03:00:33.469Z,13.5
2022-10-14T03:15:42.881Z,13.4
2022-10-14T03:30:52.422Z,13.4
2022-10-14T03:46:01.745Z,13.5
2022-10-14T04:01:11.547Z,13.5
2022-10-14T04:16:20.778Z,13.5
2022-10-14T04:31:30.734Z,13.6
2022-10-14T04:46:40.321Z,13.6
2022-10-14T05:01:50.026Z,13.6
2022-10-14T05:17:00.175Z,13.6
2022-10-14T05:32:09.671Z,13.6
2022-10-14T05:47:19.730Z,13.6
2022-10-14T06:02:29.281Z,13.6
2022-10-14T06:17:38.842Z,13.6
2022-10-14T06:36:08.493Z,14.4
2022-10-14T06:51:19.617Z,13.7
2022-10-14T07:06:29.012Z,13.7
2022-10-14T07:21:38.641Z,13.7
2022-10-14T07:36:48.367Z,13.7
2022-10-14T07:51:57.537Z,13.7
2022-10-14T08:07:06.847Z,13.9
2022-10-14T08:22:20.605Z,14
2022-10-14T08:37:32.101Z,14
2022-10-14T08:52:41.525Z,14.3
2022-10-14T09:23:00.826Z,14.8
2022-10-14T09:38:10.596Z,15
2022-10-14T09:53:20.122Z,15.1
2022-10-14T10:08:29.382Z,15.3
2022-10-14T10:23:38.788Z,15.6
2022-10-14T10:38:48.502Z,15.8
2022-10-14T10:53:57.832Z,15.9
2022-10-14T11:09:07.820Z,16.1
2022-10-14T11:24:18.515Z,16.3
2022-10-14T11:39:28.668Z,16.3
2022-10-14T11:54:45.944Z,16.7
2022-10-14T12:09:57.474Z,17.2
2022-10-14T12:25:09.735Z,16.8
2022-10-14T12:40:20.354Z,16.7
2022-10-14T12:55:29.417Z,16.6
2022-10-14T13:10:43.440Z,16.6
2022-10-14T13:25:57.055Z,16.6
2022-10-14T13:41:07.348Z,16.5
2022-10-14T13:56:20.414Z,16.5
2022-10-14T14:11:30.586Z,16.5
2022-10-14T14:26:42.783Z,16.5
2022-10-14T14:41:52.245Z,16.5
2022-10-14T14:57:01.924Z,16.5
2022-10-14T15:12:11.686Z,16.4
2022-10-14T15:27:20.710Z,16.3
2022-10-14T15:42:30.361Z,16.3
2022-10-14T15:57:39.399Z,16.2
2022-10-14T16:12:49.450Z,16.2
2022-10-14T16:27:58.623Z,16.1
2022-10-14T16:43:08.276Z,16.1
2022-10-14T16:58:20.072Z,16
2022-10-14T17:13:30.029Z,15.9
2022-10-14T17:28:39.909Z,15.8
2022-10-14T17:43:50.196Z,15.7
2022-10-14T17:58:59.536Z,15.6
2022-10-14T18:14:09.500Z,15.5
2022-10-14T18:29:20.360Z,15.4
2022-10-14T18:44:29.394Z,15.4
2022-10-14T18:59:38.803Z,15.3
2022-10-14T19:14:47.852Z,15.3
2022-10-14T19:29:57.316Z,15.3
2022-10-14T19:45:07.014Z,15.2
2022-10-14T20:00:15.997Z,15.2
2022-10-14T20:15:25.777Z,15.1
2022-10-14T20:30:35.852Z,15.1
2022-10-14T20:45:45.651Z,15.1
2022-10-14T21:00:54.598Z,15.1
2022-10-14T21:16:04.505Z,15.1
2022-10-14T21:31:16.032Z,15
2022-10-14T21:46:28.408Z,15
2022-10-14T22:01:38.265Z,15
2022-10-14T22:16:48.070Z,14.9
2022-10-14T22:31:58.046Z,14.9
2022-10-14T22:47:08.104Z,14.9
2022-10-14T23:02:19.339Z,14.9
2022-10-14T23:17:29.457Z,14.9
2022-10-14T23:32:39.245Z,14.9
2022-10-14T23:47:48.510Z,14.9
